createdAt,value
2018-07-23T00:01:34.410Z,73.96
2018-07-23T00:04:03.338Z,74.39
2018-07-23T00:06:31.889Z,74.27
2018-07-23T00:09:00.033Z,78.10
2018-07-23T00:11:28.530Z,78.92
2018-07-23T00:13:56.827Z,79.60
2018-07-23T00:16:25.650Z,79.66
2018-07-23T00:18:53.819Z,80.19
2018-07-23T00:21:23.688Z,80.26
2018-07-23T00:23:51.847Z,79.66
2018-07-23T00:26:20.023Z,80.13
2018-07-23T00:28:48.135Z,80.20
2018-07-23T00:31:16.243Z,80.27
2018-07-23T00:33:44.343Z,79.56
2018-07-23T00:36:12.650Z,79.37
2018-07-23T00:38:40.913Z,78.95
2018-07-23T00:41:09.243Z,78.44
2018-07-23T00:43:37.402Z,78.48
2018-07-23T00:46:05.777Z,76.96
2018-07-23T00:48:33.893Z,78.29
2018-07-23T00:51:02.600Z,79.13
2018-07-23T00:53:30.793Z,78.63
2018-07-23T00:55:59.243Z,78.84
2018-07-23T00:58:27.377Z,78.60
2018-07-23T01:00:55.530Z,79.24
2018-07-23T01:03:23.656Z,79.70
2018-07-23T01:05:51.799Z,79.04
2018-07-23T01:08:20.015Z,78.91
2018-07-23T01:10:48.276Z,79.86
2018-07-23T01:13:17.147Z,79.59
2018-07-23T01:15:45.355Z,79.46
2018-07-23T01:18:13.482Z,80.56
2018-07-23T01:20:42.210Z,80.19
2018-07-23T01:23:10.367Z,79.78
2018-07-23T01:25:39.047Z,79.85
2018-07-23T01:28:07.343Z,80.91
2018-07-23T01:30:35.807Z,80.84
2018-07-23T01:33:04.250Z,80.39
2018-07-23T01:35:33.166Z,79.04
2018-07-23T01:38:01.844Z,79.60
2018-07-23T01:40:29.953Z,79.44
2018-07-23T01:42:58.178Z,79.89
2018-07-23T01:45:26.324Z,80.35
2018-07-23T01:47:54.463Z,80.72
2018-07-23T01:50:22.558Z,80.27
2018-07-23T01:52:50.675Z,79.71
2018-07-23T01:55:18.942Z,79.49
2018-07-23T01:57:47.160Z,80.00
2018-07-23T02:00:15.301Z,80.26
2018-07-23T02:02:43.435Z,79.81
2018-07-23T02:05:11.536Z,80.21
2018-07-23T02:07:39.759Z,80.85
2018-07-23T02:10:07.875Z,80.74
2018-07-23T02:12:36.001Z,80.50
2018-07-23T02:15:04.364Z,79.77
2018-07-23T02:17:32.498Z,80.53
2018-07-23T02:20:00.677Z,81.41
2018-07-23T02:22:28.842Z,81.25
2018-07-23T02:24:57.134Z,80.97
2018-07-23T02:27:25.379Z,80.97
2018-07-23T02:29:53.505Z,79.89
2018-07-23T02:32:21.595Z,80.98
2018-07-23T02:34:49.851Z,80.78
2018-07-23T02:37:18.149Z,80.94
2018-07-23T02:39:46.313Z,81.14
2018-07-23T02:42:14.528Z,80.73
2018-07-23T02:44:42.659Z,80.42
2018-07-23T02:47:11.515Z,81.26
2018-07-23T02:49:40.097Z,81.54
2018-07-23T02:52:08.232Z,81.73
2018-07-23T02:54:36.348Z,82.17
2018-07-23T02:57:04.476Z,82.26
2018-07-23T02:59:32.617Z,81.79
2018-07-23T03:02:00.711Z,80.94
2018-07-23T03:04:28.878Z,81.56
2018-07-23T03:06:57.063Z,80.96
2018-07-23T03:09:25.181Z,80.38
2018-07-23T03:11:53.349Z,80.39
2018-07-23T03:14:21.871Z,82.19
2018-07-23T03:16:50.023Z,82.91
2018-07-23T03:19:18.239Z,82.71
2018-07-23T03:21:46.688Z,82.53
2018-07-23T03:24:14.811Z,80.82
2018-07-23T03:26:45.740Z,81.53
2018-07-23T03:29:13.956Z,80.79
2018-07-23T03:31:42.064Z,81.08
2018-07-23T03:34:10.183Z,82.84
2018-07-23T03:36:38.307Z,83.09
2018-07-23T03:39:08.135Z,81.35
2018-07-23T03:41:36.658Z,81.26
2018-07-23T03:44:04.748Z,80.93
2018-07-23T03:46:32.895Z,82.01
2018-07-23T03:49:00.990Z,81.57
2018-07-23T03:51:29.112Z,81.62
2018-07-23T03:53:57.281Z,80.90
2018-07-23T03:56:25.559Z,81.72
2018-07-23T03:58:53.778Z,80.40
2018-07-23T04:01:22.184Z,79.41
2018-07-23T04:03:50.642Z,80.29
2018-07-23T04:06:18.920Z,81.55
2018-07-23T04:08:49.998Z,81.30
2018-07-23T04:11:18.705Z,82.56
2018-07-23T04:13:46.883Z,81.02
2018-07-23T04:16:15.569Z,82.62
2018-07-23T04:18:43.719Z,82.87
2018-07-23T04:21:11.906Z,83.43
2018-07-23T04:23:40.116Z,82.74
2018-07-23T04:26:09.365Z,83.63
2018-07-23T04:28:37.514Z,82.38
2018-07-23T04:31:05.975Z,82.08
2018-07-23T04:33:34.165Z,82.30
2018-07-23T04:36:02.396Z,82.64
2018-07-23T04:38:30.561Z,83.20
2018-07-23T04:40:58.738Z,83.80
2018-07-23T04:43:26.863Z,82.79
2018-07-23T04:45:54.987Z,82.46
2018-07-23T04:48:23.140Z,83.42
2018-07-23T04:50:51.345Z,82.69
2018-07-23T04:53:19.536Z,83.07
2018-07-23T04:55:47.626Z,83.02
2018-07-23T04:58:15.822Z,83.17
2018-07-23T05:00:43.923Z,84.23
2018-07-23T05:03:12.047Z,83.72
2018-07-23T05:05:40.167Z,84.16
2018-07-23T05:08:08.343Z,83.83
2018-07-23T05:13:12.039Z,85.44
2018-07-23T05:15:40.204Z,85.71
2018-07-23T05:18:08.354Z,85.03
2018-07-23T05:20:36.546Z,84.99
2018-07-23T05:23:04.789Z,83.95
2018-07-23T05:25:32.965Z,83.69
2018-07-23T05:28:06.948Z,83.24
2018-07-23T05:30:35.102Z,82.97
2018-07-23T05:33:03.277Z,82.54
2018-07-23T05:35:31.558Z,83.75
2018-07-23T05:37:59.831Z,84.04
2018-07-23T05:40:27.992Z,83.77
2018-07-23T05:42:56.163Z,84.52
2018-07-23T05:45:24.326Z,82.81
2018-07-23T05:47:52.688Z,82.17
2018-07-23T05:50:20.855Z,81.84
2018-07-23T05:52:48.962Z,82.15
2018-07-23T05:55:17.259Z,82.11
2018-07-23T05:57:45.395Z,80.89
2018-07-23T06:00:13.553Z,81.54
2018-07-23T06:02:42.442Z,82.03
2018-07-23T06:05:10.605Z,81.80
2018-07-23T06:07:38.845Z,82.50
2018-07-23T06:10:07.033Z,81.20
2018-07-23T06:12:44.034Z,81.39
2018-07-23T06:15:12.246Z,80.31
2018-07-23T06:17:40.606Z,80.10
2018-07-23T06:20:09.508Z,80.33
2018-07-23T06:22:37.803Z,81.94
2018-07-23T06:25:06.738Z,81.35
2018-07-23T06:27:34.923Z,80.50
2018-07-23T06:30:03.267Z,79.18
2018-07-23T06:32:31.557Z,78.79
2018-07-23T06:34:59.680Z,79.62
2018-07-23T06:37:27.960Z,79.67
2018-07-23T06:39:56.152Z,79.21
2018-07-23T06:42:24.585Z,79.15
2018-07-23T06:44:52.714Z,79.41
2018-07-23T06:47:20.846Z,78.99
2018-07-23T06:49:48.989Z,80.05
2018-07-23T06:52:17.934Z,79.25
2018-07-23T06:54:46.091Z,80.03
2018-07-23T06:57:14.271Z,79.09
2018-07-23T06:59:42.612Z,78.44
2018-07-23T07:02:11.117Z,80.83
2018-07-23T07:04:39.440Z,79.03
2018-07-23T07:07:07.800Z,79.34
2018-07-23T07:09:36.247Z,80.91
2018-07-23T07:12:04.424Z,82.80
2018-07-23T07:14:32.660Z,81.37
2018-07-23T07:17:00.939Z,79.90
2018-07-23T07:19:29.094Z,79.87
2018-07-23T07:21:57.266Z,79.62
2018-07-23T07:24:25.572Z,79.04
2018-07-23T07:26:55.252Z,78.87
2018-07-23T07:29:23.388Z,78.79
2018-07-23T07:31:51.560Z,79.44
2018-07-23T07:34:19.738Z,80.15
2018-07-23T07:36:47.924Z,80.36
2018-07-23T07:39:16.086Z,78.92
2018-07-23T07:41:44.230Z,80.06
2018-07-23T07:44:12.760Z,79.34
2018-07-23T07:46:41.259Z,77.85
2018-07-23T07:49:10.164Z,76.97
2018-07-23T07:51:38.361Z,77.19
2018-07-23T07:54:06.536Z,76.08
2018-07-23T07:56:34.719Z,74.72
2018-07-23T07:59:02.931Z,74.48
2018-07-23T08:01:31.331Z,75.40
2018-07-23T08:04:01.589Z,74.95
2018-07-23T08:06:30.044Z,74.33
2018-07-23T08:08:58.223Z,73.87
2018-07-23T08:11:26.419Z,72.15
2018-07-23T08:13:54.537Z,71.73
2018-07-23T08:16:22.805Z,72.03
2018-07-23T08:18:51.036Z,71.72
2018-07-23T08:21:19.204Z,71.46
2018-07-23T08:23:47.488Z,70.64
2018-07-23T08:26:15.712Z,69.52
2018-07-23T08:28:44.343Z,70.37
2018-07-23T08:31:12.838Z,70.32
2018-07-23T08:33:41.159Z,69.82
2018-07-23T08:36:09.295Z,69.14
2018-07-23T08:38:37.456Z,68.77
2018-07-23T08:41:05.613Z,68.35
2018-07-23T08:43:33.736Z,66.74
2018-07-23T08:46:01.984Z,67.06
2018-07-23T08:48:30.180Z,65.84
2018-07-23T08:50:58.351Z,64.34
2018-07-23T08:53:26.627Z,65.28
2018-07-23T08:55:54.867Z,64.37
2018-07-23T08:58:22.998Z,63.22
2018-07-23T09:00:51.199Z,64.61
2018-07-23T09:03:19.979Z,64.35
2018-07-23T09:05:48.161Z,64.01
2018-07-23T09:08:16.294Z,63.93
2018-07-23T09:10:44.448Z,60.47
2018-07-23T09:13:13.038Z,61.49
2018-07-23T09:15:41.182Z,62.75
2018-07-23T09:18:09.379Z,59.53
2018-07-23T09:20:37.537Z,62.31
2018-07-23T09:23:05.987Z,62.11
2018-07-23T09:25:39.579Z,60.57
2018-07-23T09:28:07.834Z,60.81
2018-07-23T09:30:41.357Z,61.11
2018-07-23T09:33:09.488Z,58.52
2018-07-23T09:35:37.625Z,59.08
2018-07-23T09:38:05.979Z,58.73
2018-07-23T09:40:34.154Z,59.29
2018-07-23T09:43:02.722Z,59.81
2018-07-23T09:45:31.095Z,58.83
2018-07-23T09:47:59.657Z,58.70
2018-07-23T09:50:27.841Z,59.26
2018-07-23T09:52:56.008Z,58.57
2018-07-23T09:55:24.123Z,58.35
2018-07-23T09:57:52.250Z,57.63
2018-07-23T10:00:25.656Z,57.69
2018-07-23T10:02:54.863Z,56.91
2018-07-23T10:05:23.133Z,55.23
2018-07-23T10:07:51.619Z,56.37
2018-07-23T10:10:20.773Z,56.27
2018-07-23T10:12:48.914Z,56.29
2018-07-23T10:15:17.335Z,55.57
2018-07-23T10:17:45.604Z,56.58
2018-07-23T10:20:13.724Z,54.94
2018-07-23T10:22:42.155Z,54.89
2018-07-23T10:25:10.449Z,55.08
2018-07-23T10:27:38.610Z,51.72
2018-07-23T10:30:06.860Z,51.96
2018-07-23T10:32:35.480Z,52.16
2018-07-23T10:35:03.703Z,52.92
2018-07-23T10:37:31.827Z,53.89
2018-07-23T10:40:01.055Z,51.33
2018-07-23T10:42:29.158Z,50.92
2018-07-23T10:44:57.315Z,49.54
2018-07-23T10:47:25.595Z,52.33
2018-07-23T10:49:53.922Z,53.98
2018-07-23T10:52:22.058Z,51.07
2018-07-23T10:54:50.387Z,52.96
2018-07-23T10:57:18.467Z,50.68
2018-07-23T10:59:46.600Z,49.24
2018-07-23T11:02:14.703Z,47.36
2018-07-23T11:04:43.397Z,46.33
2018-07-23T11:07:11.496Z,45.88
2018-07-23T11:09:39.603Z,45.68
2018-07-23T11:12:07.786Z,45.09
2018-07-23T11:14:36.483Z,45.86
2018-07-23T11:17:04.628Z,43.56
2018-07-23T11:19:32.837Z,41.75
2018-07-23T11:22:00.958Z,41.58
2018-07-23T11:24:29.133Z,41.35
2018-07-23T11:26:57.347Z,42.96
2018-07-23T11:29:25.638Z,41.67
2018-07-23T11:31:53.706Z,40.82
2018-07-23T11:34:21.790Z,40.57
2018-07-23T11:36:49.935Z,38.66
2018-07-23T11:39:18.137Z,37.35
2018-07-23T11:41:46.256Z,39.42
2018-07-23T11:44:14.483Z,37.33
2018-07-23T11:46:53.190Z,36.44
2018-07-23T11:49:25.570Z,36.86
2018-07-23T11:51:54.104Z,33.40
2018-07-23T11:54:22.280Z,33.13
2018-07-23T11:56:50.524Z,32.07
2018-07-23T11:59:18.602Z,33.69
2018-07-23T12:01:46.797Z,29.51
2018-07-23T12:04:15.097Z,30.85
2018-07-23T12:06:43.806Z,28.47
2018-07-23T12:09:12.116Z,27.77
2018-07-23T12:11:40.728Z,29.11
2018-07-23T12:14:09.006Z,29.34
2018-07-23T12:16:37.787Z,27.05
2018-07-23T12:19:06.051Z,26.57
2018-07-23T12:21:35.388Z,25.90
2018-07-23T12:24:03.930Z,25.54
2018-07-23T12:26:32.577Z,25.07
2018-07-23T12:29:00.741Z,25.04
2018-07-23T12:31:29.114Z,25.45
2018-07-23T12:33:57.359Z,26.16
2018-07-23T12:36:25.753Z,24.77
2018-07-23T12:38:54.975Z,24.49
2018-07-23T12:41:23.280Z,24.52
2018-07-23T12:43:51.653Z,23.96
2018-07-23T12:46:20.853Z,23.49
2018-07-23T12:48:49.109Z,22.19
2018-07-23T12:51:17.841Z,22.06
2018-07-23T12:53:46.193Z,22.10
2018-07-23T12:56:14.747Z,20.26
2018-07-23T12:58:45.027Z,22.48
2018-07-23T13:01:14.042Z,22.91
2018-07-23T13:03:42.490Z,22.59
2018-07-23T13:06:10.672Z,21.08
2018-07-23T13:08:39.328Z,21.98
2018-07-23T13:11:07.586Z,18.93
2018-07-23T13:13:36.415Z,21.98
2018-07-23T13:16:05.071Z,20.96
2018-07-23T13:18:33.354Z,22.09
2018-07-23T13:21:01.881Z,21.32
2018-07-23T13:23:30.158Z,21.51
2018-07-23T13:26:01.925Z,20.67
2018-07-23T13:28:33.452Z,21.77
2018-07-23T13:31:01.622Z,21.08
2018-07-23T13:33:32.749Z,19.35
2018-07-23T13:36:01.921Z,19.01
2018-07-23T13:38:30.978Z,20.33
2018-07-23T13:40:59.776Z,20.16
2018-07-23T13:43:28.284Z,20.86
2018-07-23T13:45:56.739Z,20.46
2018-07-23T13:48:25.854Z,20.13
2018-07-23T13:50:55.249Z,19.52
2018-07-23T13:53:24.113Z,20.11
2018-07-23T13:55:54.700Z,19.25
2018-07-23T13:58:23.976Z,18.81
2018-07-23T14:00:52.778Z,19.12
2018-07-23T14:03:22.635Z,19.49
2018-07-23T14:05:50.822Z,18.99
2018-07-23T14:08:19.261Z,18.32
2018-07-23T14:10:49.034Z,18.99
2018-07-23T14:13:17.254Z,18.19
2018-07-23T14:15:45.411Z,17.63
2018-07-23T14:18:14.394Z,18.32
2018-07-23T14:20:42.558Z,19.51
2018-07-23T14:23:11.693Z,17.73
2018-07-23T14:25:40.794Z,17.50
2018-07-23T14:28:09.056Z,18.65
2018-07-23T14:30:37.520Z,16.90
2018-07-23T14:33:06.208Z,19.48
2018-07-23T14:35:34.585Z,20.30
2018-07-23T14:38:02.844Z,18.97
2018-07-23T14:40:31.192Z,20.97
2018-07-23T14:42:59.396Z,20.49
2018-07-23T14:45:27.863Z,21.14
2018-07-23T14:47:56.304Z,19.37
2018-07-23T14:50:24.427Z,19.71
2018-07-23T14:52:53.432Z,22.15
2018-07-23T14:55:21.921Z,21.18
2018-07-23T14:57:50.226Z,21.09
2018-07-23T15:00:19.062Z,20.84
2018-07-23T15:02:47.344Z,20.37
2018-07-23T15:05:15.955Z,20.28
2018-07-23T15:07:44.584Z,20.01
2018-07-23T15:10:12.695Z,19.43
2018-07-23T15:12:40.872Z,19.67
2018-07-23T15:15:09.036Z,19.44
2018-07-23T15:17:37.338Z,19.44
2018-07-23T15:20:05.658Z,20.20
2018-07-23T15:22:33.916Z,20.79
2018-07-23T15:25:07.865Z,19.70
2018-07-23T15:27:36.145Z,20.38
2018-07-23T15:30:05.136Z,22.24
2018-07-23T15:32:33.404Z,20.14
2018-07-23T15:35:01.866Z,20.87
2018-07-23T15:37:30.402Z,21.17
2018-07-23T15:39:59.810Z,19.43
2018-07-23T15:42:27.978Z,19.82
2018-07-23T15:44:56.509Z,19.68
2018-07-23T15:47:24.287Z,19.27
2018-07-23T15:49:52.670Z,18.59
2018-07-23T15:52:21.357Z,18.93
2018-07-23T15:54:49.686Z,18.62
2018-07-23T15:57:17.935Z,17.31
2018-07-23T15:59:46.235Z,17.83
2018-07-23T16:02:14.784Z,17.73
2018-07-23T16:04:42.994Z,18.82
2018-07-23T16:07:11.644Z,19.29
2018-07-23T16:09:39.902Z,18.77
2018-07-23T16:12:08.082Z,19.19
2018-07-23T16:14:36.271Z,20.11
2018-07-23T16:17:04.526Z,20.22
2018-07-23T16:19:32.709Z,20.93
2018-07-23T16:22:00.977Z,21.83
2018-07-23T16:24:29.150Z,22.45
2018-07-23T16:26:57.379Z,23.68
2018-07-23T16:29:25.613Z,23.44
2018-07-23T16:31:53.805Z,23.33
2018-07-23T16:34:22.216Z,24.13
2018-07-23T16:36:50.331Z,24.27
2018-07-23T16:39:20.038Z,23.68
2018-07-23T16:41:48.165Z,24.58
2018-07-23T16:44:16.271Z,25.55
2018-07-23T16:46:45.975Z,24.29
2018-07-23T16:49:16.362Z,23.83
2018-07-23T16:51:46.451Z,24.88
2018-07-23T16:54:15.136Z,24.38
2018-07-23T16:56:43.260Z,24.68
2018-07-23T16:59:11.382Z,24.86
2018-07-23T17:01:39.750Z,24.89
2018-07-23T17:04:07.916Z,24.98
2018-07-23T17:06:36.175Z,26.16
2018-07-23T17:09:07.611Z,25.35
2018-07-23T17:11:35.854Z,25.09
2018-07-23T17:14:04.088Z,25.84
2018-07-23T17:16:32.271Z,25.86
2018-07-23T17:19:00.411Z,26.14
2018-07-23T17:21:29.534Z,25.95
2018-07-23T17:23:57.622Z,25.76
2018-07-23T17:26:25.819Z,25.91
2018-07-23T17:28:53.939Z,26.20
2018-07-23T17:31:22.468Z,27.01
2018-07-23T17:33:50.593Z,27.32
2018-07-23T17:36:18.969Z,27.04
2018-07-23T17:38:47.541Z,27.00
2018-07-23T17:41:15.613Z,27.07
2018-07-23T17:43:43.758Z,27.82
2018-07-23T17:46:11.965Z,29.78
2018-07-23T17:48:40.160Z,28.44
2018-07-23T17:51:08.398Z,29.11
2018-07-23T17:53:36.703Z,30.20
2018-07-23T17:56:04.864Z,29.95
2018-07-23T17:58:32.950Z,30.65
2018-07-23T18:01:01.123Z,29.98
2018-07-23T18:03:29.258Z,30.02
2018-07-23T18:05:57.472Z,30.37
2018-07-23T18:08:25.640Z,30.81
2018-07-23T18:10:53.750Z,31.08
2018-07-23T18:13:21.823Z,30.40
2018-07-23T18:15:49.928Z,30.60
2018-07-23T18:18:19.062Z,31.94
2018-07-23T18:20:47.310Z,32.31
2018-07-23T18:23:16.151Z,31.78
2018-07-23T18:25:44.295Z,32.54
2018-07-23T18:28:12.537Z,32.87
2018-07-23T18:30:40.654Z,32.69
2018-07-23T18:33:08.818Z,33.25
2018-07-23T18:35:36.896Z,34.04
2018-07-23T18:38:05.834Z,33.97
2018-07-23T18:40:33.967Z,33.29
2018-07-23T18:43:02.051Z,33.81
2018-07-23T18:45:30.197Z,33.67
2018-07-23T18:47:58.391Z,33.80
2018-07-23T18:50:26.496Z,34.24
2018-07-23T18:52:54.568Z,34.97
2018-07-23T18:55:22.770Z,35.94
2018-07-23T18:57:50.834Z,36.49
2018-07-23T19:00:19.034Z,35.11
2018-07-23T19:02:47.172Z,36.30
2018-07-23T19:05:15.434Z,35.96
2018-07-23T19:07:43.615Z,36.43
2018-07-23T19:10:11.693Z,35.70
2018-07-23T19:12:39.960Z,35.77
2018-07-23T19:15:08.097Z,36.29
2018-07-23T19:17:37.510Z,36.35
2018-07-23T19:20:05.731Z,36.97
2018-07-23T19:22:33.845Z,36.21
2018-07-23T19:25:01.927Z,35.73
2018-07-23T19:27:30.094Z,35.31
2018-07-23T19:29:58.393Z,35.96
2018-07-23T19:32:26.498Z,35.74
2018-07-23T19:34:54.737Z,36.05
2018-07-23T19:37:22.814Z,36.73
2018-07-23T19:39:50.922Z,36.05
2018-07-23T19:42:19.022Z,36.05
2018-07-23T19:44:47.127Z,36.95
2018-07-23T19:47:15.697Z,37.15
2018-07-23T19:49:43.806Z,36.76
2018-07-23T19:52:11.908Z,36.77
2018-07-23T19:54:40.080Z,37.96
2018-07-23T19:57:08.302Z,38.00
2018-07-23T19:59:36.431Z,38.38
2018-07-23T20:04:38.970Z,39.30
2018-07-23T20:07:07.083Z,38.61
2018-07-23T20:09:35.297Z,38.86
2018-07-23T20:12:03.585Z,38.28
2018-07-23T20:14:31.771Z,38.53
2018-07-23T20:17:00.786Z,39.94
2018-07-23T20:19:28.966Z,40.20
2018-07-23T20:21:57.061Z,39.65
2018-07-23T20:24:25.401Z,40.10
2018-07-23T20:26:53.633Z,40.26
2018-07-23T20:29:21.821Z,40.76
2018-07-23T20:31:50.254Z,39.86
2018-07-23T20:34:22.616Z,41.63
2018-07-23T20:36:51.766Z,39.71
2018-07-23T20:39:19.900Z,41.03
2018-07-23T20:41:48.113Z,41.25
2018-07-23T20:44:16.220Z,40.31
2018-07-23T20:46:44.731Z,41.17
2018-07-23T20:49:12.870Z,40.31
2018-07-23T20:51:41.079Z,40.67
2018-07-23T20:54:09.232Z,41.10
2018-07-23T20:56:37.405Z,41.83
2018-07-23T20:59:07.235Z,42.20
2018-07-23T21:01:35.622Z,43.41
2018-07-23T21:04:03.769Z,42.18
2018-07-23T21:06:31.935Z,42.88
2018-07-23T21:09:00.059Z,43.67
2018-07-23T21:11:28.204Z,44.01
2018-07-23T21:13:56.414Z,43.95
2018-07-23T21:16:24.582Z,45.92
2018-07-23T21:18:52.667Z,44.45
2018-07-23T21:21:21.004Z,45.27
2018-07-23T21:23:49.126Z,45.64
2018-07-23T21:26:17.345Z,46.34
2018-07-23T21:28:46.014Z,45.39
2018-07-23T21:31:14.344Z,46.70
2018-07-23T21:33:42.438Z,45.79
2018-07-23T21:36:10.556Z,45.83
2018-07-23T21:38:38.659Z,46.57
2018-07-23T21:41:06.950Z,45.31
2018-07-23T21:43:35.048Z,45.58
2018-07-23T21:46:03.163Z,45.48
2018-07-23T21:48:31.313Z,47.07
2018-07-23T21:50:59.369Z,47.37
2018-07-23T21:53:27.495Z,46.86
2018-07-23T21:55:55.675Z,46.78
2018-07-23T21:58:23.951Z,48.17
2018-07-23T22:00:52.052Z,47.58
2018-07-23T22:03:20.132Z,46.86
2018-07-23T22:05:48.299Z,47.02
2018-07-23T22:08:16.527Z,48.40
2018-07-23T22:10:44.788Z,48.51
2018-07-23T22:13:12.879Z,47.45
2018-07-23T22:15:40.943Z,46.85
2018-07-23T22:18:09.022Z,47.60
2018-07-23T22:20:37.178Z,48.03
2018-07-23T22:23:05.665Z,48.52
2018-07-23T22:25:33.994Z,49.51
2018-07-23T22:28:02.276Z,49.11
2018-07-23T22:30:30.399Z,49.55
2018-07-23T22:32:58.567Z,49.40
2018-07-23T22:35:26.778Z,49.94
2018-07-23T22:37:54.935Z,48.98
2018-07-23T22:40:23.250Z,48.93
2018-07-23T22:42:51.382Z,50.02
2018-07-23T22:45:19.634Z,49.65
2018-07-23T22:47:47.795Z,49.36
2018-07-23T22:50:16.817Z,49.23
2018-07-23T22:52:45.039Z,50.27
2018-07-23T22:55:13.243Z,49.60
2018-07-23T22:57:41.423Z,50.34
2018-07-23T23:00:09.534Z,49.93
2018-07-23T23:02:38.236Z,51.50
2018-07-23T23:05:06.363Z,50.13
2018-07-23T23:07:34.540Z,49.53
2018-07-23T23:10:02.680Z,51.10
2018-07-23T23:12:30.842Z,49.69
2018-07-23T23:14:59.043Z,49.88
2018-07-23T23:17:27.308Z,53.11
2018-07-23T23:19:55.472Z,51.33
2018-07-23T23:22:23.603Z,54.89
2018-07-23T23:24:51.712Z,53.54
2018-07-23T23:27:19.890Z,55.37
2018-07-23T23:29:48.084Z,52.14
2018-07-23T23:32:16.463Z,51.82
2018-07-23T23:34:44.599Z,51.22
2018-07-23T23:37:12.738Z,52.59
2018-07-23T23:39:40.895Z,53.19
2018-07-23T23:42:08.978Z,52.64
2018-07-23T23:44:37.636Z,54.02
2018-07-23T23:47:06.129Z,54.94
2018-07-23T23:49:34.516Z,54.17
2018-07-23T23:52:02.910Z,52.93
2018-07-23T23:54:31.161Z,52.65
2018-07-23T23:56:59.246Z,52.24
2018-07-23T23:59:27.847Z,53.59
